sensor_id;sensor_type;location;lat;lon;timestamp;temperature;humidity
29775;DHT22;16676;51.202;6.774;2023-11-19T00:03:16;17.70;93.30
29775;DHT22;16676;51.202;6.774;2023-11-19T00:07:19;17.70;93.50
29775;DHT22;16676;51.202;6.774;2023-11-19T00:11:21;17.70;93.20
29775;DHT22;16676;51.202;6.774;2023-11-19T00:15:24;17.70;93.40
29775;DHT22;16676;51.202;6.774;2023-11-19T00:19:26;17.70;93.40
29775;DHT22;16676;51.202;6.774;2023-11-19T00:23:30;17.60;93.80
29775;DHT22;16676;51.202;6.774;2023-11-19T00:27:32;17.60;93.80
29775;DHT22;16676;51.202;6.774;2023-11-19T00:31:34;17.60;93.30
29775;DHT22;16676;51.202;6.774;2023-11-19T00:35:36;17.60;93.10
29775;DHT22;16676;51.202;6.774;2023-11-19T00:39:39;17.60;93.90
29775;DHT22;16676;51.202;6.774;2023-11-19T00:43:41;17.50;94.10
29775;DHT22;16676;51.202;6.774;2023-11-19T00:47:43;17.60;93.30
29775;DHT22;16676;51.202;6.774;2023-11-19T00:51:45;17.60;93.70
29775;DHT22;16676;51.202;6.774;2023-11-19T00:55:48;17.60;93.90
29775;DHT22;16676;51.202;6.774;2023-11-19T00:59:50;17.50;94.30
29775;DHT22;16676;51.202;6.774;2023-11-19T01:03:53;17.60;94.30
29775;DHT22;16676;51.202;6.774;2023-11-19T01:07:55;17.60;93.90
29775;DHT22;16676;51.202;6.774;2023-11-19T01:11:58;17.50;93.70
29775;DHT22;16676;51.202;6.774;2023-11-19T01:16:01;17.60;94.20
29775;DHT22;16676;51.202;6.774;2023-11-19T01:20:03;17.60;93.70
29775;DHT22;16676;51.202;6.774;2023-11-19T01:24:07;17.60;94.00
29775;DHT22;16676;51.202;6.774;2023-11-19T01:28:11;17.60;93.30
29775;DHT22;16676;51.202;6.774;2023-11-19T01:32:13;17.60;94.10
29775;DHT22;16676;51.202;6.774;2023-11-19T01:36:15;17.50;94.50
29775;DHT22;16676;51.202;6.774;2023-11-19T01:40:20;17.60;94.10
29775;DHT22;16676;51.202;6.774;2023-11-19T01:44:24;17.60;94.10
29775;DHT22;16676;51.202;6.774;2023-11-19T01:48:26;17.60;94.10
29775;DHT22;16676;51.202;6.774;2023-11-19T01:52:29;17.60;94.20
29775;DHT22;16676;51.202;6.774;2023-11-19T01:56:32;17.60;94.10
29775;DHT22;16676;51.202;6.774;2023-11-19T02:00:35;17.60;94.50
29775;DHT22;16676;51.202;6.774;2023-11-19T02:04:37;17.60;93.70
29775;DHT22;16676;51.202;6.774;2023-11-19T02:08:39;17.60;93.90
29775;DHT22;16676;51.202;6.774;2023-11-19T02:12:41;17.60;94.10
29775;DHT22;16676;51.202;6.774;2023-11-19T02:16:45;17.60;94.00
29775;DHT22;16676;51.202;6.774;2023-11-19T02:20:48;17.60;93.90
29775;DHT22;16676;51.202;6.774;2023-11-19T02:25:02;17.60;93.60
29775;DHT22;16676;51.202;6.774;2023-11-19T02:29:08;17.60;94.10
29775;DHT22;16676;51.202;6.774;2023-11-19T02:33:10;17.60;93.80
29775;DHT22;16676;51.202;6.774;2023-11-19T02:37:13;17.60;94.00
29775;DHT22;16676;51.202;6.774;2023-11-19T02:41:16;17.60;93.80
29775;DHT22;16676;51.202;6.774;2023-11-19T02:45:19;17.60;93.10
29775;DHT22;16676;51.202;6.774;2023-11-19T02:49:22;17.60;93.80
29775;DHT22;16676;51.202;6.774;2023-11-19T02:53:24;17.50;93.70
29775;DHT22;16676;51.202;6.774;2023-11-19T02:57:31;17.60;93.90
29775;DHT22;16676;51.202;6.774;2023-11-19T03:01:34;17.60;93.90
29775;DHT22;16676;51.202;6.774;2023-11-19T03:05:36;17.50;94.00
29775;DHT22;16676;51.202;6.774;2023-11-19T03:09:38;17.50;94.00
29775;DHT22;16676;51.202;6.774;2023-11-19T03:13:41;17.60;93.50
29775;DHT22;16676;51.202;6.774;2023-11-19T03:17:44;17.60;93.90
29775;DHT22;16676;51.202;6.774;2023-11-19T03:21:46;17.50;94.00
29775;DHT22;16676;51.202;6.774;2023-11-19T03:25:49;17.50;94.10
29775;DHT22;16676;51.202;6.774;2023-11-19T03:29:51;17.50;94.20
29775;DHT22;16676;51.202;6.774;2023-11-19T03:33:54;17.50;94.20
29775;DHT22;16676;51.202;6.774;2023-11-19T03:37:56;17.50;94.20
29775;DHT22;16676;51.202;6.774;2023-11-19T03:41:58;17.50;94.10
29775;DHT22;16676;51.202;6.774;2023-11-19T03:46:00;17.60;94.10
29775;DHT22;16676;51.202;6.774;2023-11-19T03:50:06;17.60;94.00
29775;DHT22;16676;51.202;6.774;2023-11-19T03:54:08;17.60;93.60
29775;DHT22;16676;51.202;6.774;2023-11-19T03:58:10;17.60;94.00
29775;DHT22;16676;51.202;6.774;2023-11-19T04:02:12;17.60;94.00
29775;DHT22;16676;51.202;6.774;2023-11-19T04:06:16;17.60;94.40
29775;DHT22;16676;51.202;6.774;2023-11-19T04:10:18;17.60;93.70
29775;DHT22;16676;51.202;6.774;2023-11-19T04:14:21;17.60;93.80
29775;DHT22;16676;51.202;6.774;2023-11-19T04:18:22;17.60;93.90
29775;DHT22;16676;51.202;6.774;2023-11-19T04:22:26;17.60;93.70
29775;DHT22;16676;51.202;6.774;2023-11-19T04:26:28;17.60;93.80
29775;DHT22;16676;51.202;6.774;2023-11-19T04:30:31;17.60;93.80
29775;DHT22;16676;51.202;6.774;2023-11-19T04:34:33;17.60;93.80
29775;DHT22;16676;51.202;6.774;2023-11-19T04:38:37;17.60;93.70
29775;DHT22;16676;51.202;6.774;2023-11-19T04:42:39;17.60;93.90
29775;DHT22;16676;51.202;6.774;2023-11-19T04:46:42;17.60;93.80
29775;DHT22;16676;51.202;6.774;2023-11-19T04:50:44;17.60;93.80
29775;DHT22;16676;51.202;6.774;2023-11-19T04:54:47;17.60;93.80
29775;DHT22;16676;51.202;6.774;2023-11-19T04:58:49;17.50;93.40
29775;DHT22;16676;51.202;6.774;2023-11-19T05:02:51;17.60;93.80
29775;DHT22;16676;51.202;6.774;2023-11-19T05:06:53;17.50;94.00
29775;DHT22;16676;51.202;6.774;2023-11-19T05:10:57;17.60;93.70
29775;DHT22;16676;51.202;6.774;2023-11-19T05:15:00;17.60;93.70
29775;DHT22;16676;51.202;6.774;2023-11-19T05:19:02;17.60;93.70
29775;DHT22;16676;51.202;6.774;2023-11-19T05:23:04;17.60;93.70
29775;DHT22;16676;51.202;6.774;2023-11-19T05:27:07;17.50;93.80
29775;DHT22;16676;51.202;6.774;2023-11-19T05:31:11;17.60;93.80
29775;DHT22;16676;51.202;6.774;2023-11-19T05:35:14;17.50;93.80
29775;DHT22;16676;51.202;6.774;2023-11-19T05:39:16;17.60;93.70
29775;DHT22;16676;51.202;6.774;2023-11-19T05:43:20;17.60;93.80
29775;DHT22;16676;51.202;6.774;2023-11-19T05:47:22;17.50;93.80
29775;DHT22;16676;51.202;6.774;2023-11-19T05:51:24;17.50;93.90
29775;DHT22;16676;51.202;6.774;2023-11-19T05:55:26;17.50;93.90
29775;DHT22;16676;51.202;6.774;2023-11-19T05:59:30;17.50;93.70
29775;DHT22;16676;51.202;6.774;2023-11-19T06:03:33;17.50;93.70
29775;DHT22;16676;51.202;6.774;2023-11-19T06:07:35;17.50;93.90
29775;DHT22;16676;51.202;6.774;2023-11-19T06:11:39;17.50;93.80
29775;DHT22;16676;51.202;6.774;2023-11-19T06:15:43;17.50;93.90
29775;DHT22;16676;51.202;6.774;2023-11-19T06:19:44;17.50;93.90
29775;DHT22;16676;51.202;6.774;2023-11-19T06:23:46;17.50;94.00
29775;DHT22;16676;51.202;6.774;2023-11-19T06:27:50;17.50;93.80
29775;DHT22;16676;51.202;6.774;2023-11-19T06:31:53;17.50;93.80
29775;DHT22;16676;51.202;6.774;2023-11-19T06:35:55;17.50;93.60
29775;DHT22;16676;51.202;6.774;2023-11-19T06:39:57;17.50;93.80
29775;DHT22;16676;51.202;6.774;2023-11-19T06:43:59;17.50;93.50
29775;DHT22;16676;51.202;6.774;2023-11-19T06:48:03;17.50;92.80
29775;DHT22;16676;51.202;6.774;2023-11-19T06:52:05;17.50;93.10
29775;DHT22;16676;51.202;6.774;2023-11-19T06:56:17;17.60;93.50
29775;DHT22;16676;51.202;6.774;2023-11-19T07:00:19;17.50;93.30
29775;DHT22;16676;51.202;6.774;2023-11-19T07:04:23;17.60;93.40
29775;DHT22;16676;51.202;6.774;2023-11-19T07:08:25;17.50;93.50
29775;DHT22;16676;51.202;6.774;2023-11-19T07:12:27;17.60;93.20
29775;DHT22;16676;51.202;6.774;2023-11-19T07:16:29;17.50;92.80
29775;DHT22;16676;51.202;6.774;2023-11-19T07:20:32;17.60;93.10
29775;DHT22;16676;51.202;6.774;2023-11-19T07:24:34;17.60;92.50
29775;DHT22;16676;51.202;6.774;2023-11-19T07:28:36;17.60;92.70
29775;DHT22;16676;51.202;6.774;2023-11-19T07:32:40;17.60;92.70
29775;DHT22;16676;51.202;6.774;2023-11-19T07:36:43;17.60;92.40
29775;DHT22;16676;51.202;6.774;2023-11-19T07:40:45;17.60;92.40
29775;DHT22;16676;51.202;6.774;2023-11-19T07:44:48;17.60;92.50
29775;DHT22;16676;51.202;6.774;2023-11-19T07:48:50;17.60;92.50
29775;DHT22;16676;51.202;6.774;2023-11-19T07:52:53;17.60;93.00
29775;DHT22;16676;51.202;6.774;2023-11-19T07:56:55;17.60;92.50
29775;DHT22;16676;51.202;6.774;2023-11-19T08:00:57;17.70;91.90
29775;DHT22;16676;51.202;6.774;2023-11-19T08:04:59;17.80;91.80
29775;DHT22;16676;51.202;6.774;2023-11-19T08:09:02;17.80;91.80
29775;DHT22;16676;51.202;6.774;2023-11-19T08:13:04;17.90;91.90
29775;DHT22;16676;51.202;6.774;2023-11-19T08:17:06;17.90;91.50
29775;DHT22;16676;51.202;6.774;2023-11-19T08:21:08;18.00;91.10
29775;DHT22;16676;51.202;6.774;2023-11-19T08:25:11;18.00;91.20
29775;DHT22;16676;51.202;6.774;2023-11-19T08:29:13;17.90;91.60
29775;DHT22;16676;51.202;6.774;2023-11-19T08:33:15;17.90;91.50
29775;DHT22;16676;51.202;6.774;2023-11-19T08:37:17;18.00;91.50
29775;DHT22;16676;51.202;6.774;2023-11-19T08:41:23;18.00;91.00
29775;DHT22;16676;51.202;6.774;2023-11-19T08:45:25;17.90;91.10
29775;DHT22;16676;51.202;6.774;2023-11-19T08:49:27;17.90;88.10
29775;DHT22;16676;51.202;6.774;2023-11-19T08:53:29;17.70;85.30
29775;DHT22;16676;51.202;6.774;2023-11-19T08:57:32;17.40;83.90
29775;DHT22;16676;51.202;6.774;2023-11-19T09:01:34;17.20;83.00
29775;DHT22;16676;51.202;6.774;2023-11-19T09:05:36;16.90;82.90
29775;DHT22;16676;51.202;6.774;2023-11-19T09:09:39;16.60;83.10
29775;DHT22;16676;51.202;6.774;2023-11-19T09:13:43;16.70;83.50
29775;DHT22;16676;51.202;6.774;2023-11-19T09:17:45;16.70;83.00
29775;DHT22;16676;51.202;6.774;2023-11-19T09:21:47;16.80;81.90
29775;DHT22;16676;51.202;6.774;2023-11-19T09:25:49;16.70;82.40
29775;DHT22;16676;51.202;6.774;2023-11-19T09:29:53;17.00;81.90
29775;DHT22;16676;51.202;6.774;2023-11-19T09:33:58;17.10;82.20
29775;DHT22;16676;51.202;6.774;2023-11-19T09:38:00;17.30;80.10
29775;DHT22;16676;51.202;6.774;2023-11-19T09:42:03;17.40;80.10
29775;DHT22;16676;51.202;6.774;2023-11-19T09:46:09;17.30;80.70
29775;DHT22;16676;51.202;6.774;2023-11-19T09:50:16;17.20;80.50
29775;DHT22;16676;51.202;6.774;2023-11-19T09:54:18;17.20;80.50
29775;DHT22;16676;51.202;6.774;2023-11-19T09:58:20;17.10;82.70
29775;DHT22;16676;51.202;6.774;2023-11-19T10:02:24;17.40;84.40
29775;DHT22;16676;51.202;6.774;2023-11-19T10:06:27;17.80;83.70
29775;DHT22;16676;51.202;6.774;2023-11-19T10:10:29;17.90;83.50
29775;DHT22;16676;51.202;6.774;2023-11-19T10:14:31;18.10;83.10
29775;DHT22;16676;51.202;6.774;2023-11-19T10:18:35;18.20;83.10
29775;DHT22;16676;51.202;6.774;2023-11-19T10:22:38;18.20;82.80
29775;DHT22;16676;51.202;6.774;2023-11-19T10:26:40;18.30;83.00
29775;DHT22;16676;51.202;6.774;2023-11-19T10:30:43;18.40;82.60
29775;DHT22;16676;51.202;6.774;2023-11-19T10:34:47;18.50;82.00
29775;DHT22;16676;51.202;6.774;2023-11-19T10:38:52;18.50;82.40
29775;DHT22;16676;51.202;6.774;2023-11-19T10:43:02;18.50;82.20
29775;DHT22;16676;51.202;6.774;2023-11-19T10:47:05;18.50;81.60
29775;DHT22;16676;51.202;6.774;2023-11-19T10:51:13;18.50;82.00
29775;DHT22;16676;51.202;6.774;2023-11-19T10:55:27;18.50;81.30
29775;DHT22;16676;51.202;6.774;2023-11-19T10:59:30;18.50;81.60
29775;DHT22;16676;51.202;6.774;2023-11-19T11:03:38;18.50;81.70
29775;DHT22;16676;51.202;6.774;2023-11-19T11:07:44;18.50;80.90
29775;DHT22;16676;51.202;6.774;2023-11-19T11:11:47;18.50;81.20
29775;DHT22;16676;51.202;6.774;2023-11-19T11:15:50;18.50;80.70
29775;DHT22;16676;51.202;6.774;2023-11-19T11:19:52;18.50;80.90
29775;DHT22;16676;51.202;6.774;2023-11-19T11:24:20;18.50;80.70
29775;DHT22;16676;51.202;6.774;2023-11-19T11:28:31;18.60;80.20
29775;DHT22;16676;51.202;6.774;2023-11-19T11:32:41;18.60;80.00
29775;DHT22;16676;51.202;6.774;2023-11-19T11:36:51;18.70;81.10
29775;DHT22;16676;51.202;6.774;2023-11-19T11:41:17;18.70;80.70
29775;DHT22;16676;51.202;6.774;2023-11-19T11:45:35;18.40;76.30
29775;DHT22;16676;51.202;6.774;2023-11-19T11:49:38;17.90;75.20
29775;DHT22;16676;51.202;6.774;2023-11-19T11:53:41;17.50;74.60
29775;DHT22;16676;51.202;6.774;2023-11-19T11:57:45;17.30;75.60
29775;DHT22;16676;51.202;6.774;2023-11-19T12:01:57;17.30;75.30
29775;DHT22;16676;51.202;6.774;2023-11-19T12:06:00;17.10;75.70
29775;DHT22;16676;51.202;6.774;2023-11-19T12:10:07;17.00;74.30
29775;DHT22;16676;51.202;6.774;2023-11-19T12:14:10;16.90;74.20
29775;DHT22;16676;51.202;6.774;2023-11-19T12:18:19;16.90;74.70
29775;DHT22;16676;51.202;6.774;2023-11-19T12:22:21;17.10;73.80
29775;DHT22;16676;51.202;6.774;2023-11-19T12:26:37;17.00;73.50
29775;DHT22;16676;51.202;6.774;2023-11-19T12:30:40;16.80;74.20
29775;DHT22;16676;51.202;6.774;2023-11-19T12:34:42;17.00;75.10
29775;DHT22;16676;51.202;6.774;2023-11-19T12:38:44;17.20;76.70
29775;DHT22;16676;51.202;6.774;2023-11-19T12:42:47;17.40;77.10
29775;DHT22;16676;51.202;6.774;2023-11-19T12:47:04;17.50;77.40
29775;DHT22;16676;51.202;6.774;2023-11-19T12:51:07;17.60;78.00
29775;DHT22;16676;51.202;6.774;2023-11-19T12:55:24;17.70;78.40
29775;DHT22;16676;51.202;6.774;2023-11-19T12:59:26;17.70;78.40
29775;DHT22;16676;51.202;6.774;2023-11-19T13:03:31;17.80;78.80
29775;DHT22;16676;51.202;6.774;2023-11-19T13:07:33;17.80;79.70
29775;DHT22;16676;51.202;6.774;2023-11-19T13:11:35;17.80;79.30
29775;DHT22;16676;51.202;6.774;2023-11-19T13:15:39;18.00;83.50
29775;DHT22;16676;51.202;6.774;2023-11-19T13:19:42;18.10;83.60
29775;DHT22;16676;51.202;6.774;2023-11-19T13:23:45;18.20;82.70
29775;DHT22;16676;51.202;6.774;2023-11-19T13:27:47;18.20;81.90
29775;DHT22;16676;51.202;6.774;2023-11-19T13:31:49;18.20;81.80
29775;DHT22;16676;51.202;6.774;2023-11-19T13:35:52;18.30;81.30
29775;DHT22;16676;51.202;6.774;2023-11-19T13:39:55;18.30;81.50
29775;DHT22;16676;51.202;6.774;2023-11-19T13:43:57;18.30;82.30
29775;DHT22;16676;51.202;6.774;2023-11-19T13:47:59;18.30;81.70
29775;DHT22;16676;51.202;6.774;2023-11-19T13:52:03;18.30;82.00
29775;DHT22;16676;51.202;6.774;2023-11-19T13:56:06;18.30;82.00
29775;DHT22;16676;51.202;6.774;2023-11-19T14:00:09;18.30;82.20
29775;DHT22;16676;51.202;6.774;2023-11-19T14:04:13;18.30;82.30
29775;DHT22;16676;51.202;6.774;2023-11-19T14:08:16;18.30;82.30
29775;DHT22;16676;51.202;6.774;2023-11-19T14:12:18;18.30;82.30
29775;DHT22;16676;51.202;6.774;2023-11-19T14:16:20;18.30;82.60
29775;DHT22;16676;51.202;6.774;2023-11-19T14:20:22;18.30;82.70
29775;DHT22;16676;51.202;6.774;2023-11-19T14:24:26;18.30;82.80
29775;DHT22;16676;51.202;6.774;2023-11-19T14:28:28;18.30;82.90
29775;DHT22;16676;51.202;6.774;2023-11-19T14:32:31;18.30;82.90
29775;DHT22;16676;51.202;6.774;2023-11-19T14:36:34;18.30;83.20
29775;DHT22;16676;51.202;6.774;2023-11-19T14:40:37;18.40;85.00
29775;DHT22;16676;51.202;6.774;2023-11-19T14:44:39;18.30;84.60
29775;DHT22;16676;51.202;6.774;2023-11-19T14:48:41;18.30;84.40
29775;DHT22;16676;51.202;6.774;2023-11-19T14:52:43;18.30;84.40
29775;DHT22;16676;51.202;6.774;2023-11-19T14:56:47;18.30;84.80
29775;DHT22;16676;51.202;6.774;2023-11-19T15:00:49;18.30;85.80
29775;DHT22;16676;51.202;6.774;2023-11-19T15:04:51;18.40;86.30
29775;DHT22;16676;51.202;6.774;2023-11-19T15:08:53;18.60;86.70
29775;DHT22;16676;51.202;6.774;2023-11-19T15:12:56;18.70;85.10
29775;DHT22;16676;51.202;6.774;2023-11-19T15:16:58;18.90;85.20
29775;DHT22;16676;51.202;6.774;2023-11-19T15:21:01;19.00;84.70
29775;DHT22;16676;51.202;6.774;2023-11-19T15:25:04;19.00;84.10
29775;DHT22;16676;51.202;6.774;2023-11-19T15:29:12;19.10;84.00
29775;DHT22;16676;51.202;6.774;2023-11-19T15:33:14;19.20;83.40
29775;DHT22;16676;51.202;6.774;2023-11-19T15:37:16;19.20;83.30
29775;DHT22;16676;51.202;6.774;2023-11-19T15:41:18;19.30;82.70
29775;DHT22;16676;51.202;6.774;2023-11-19T15:45:21;19.30;83.00
29775;DHT22;16676;51.202;6.774;2023-11-19T15:49:23;19.30;83.10
29775;DHT22;16676;51.202;6.774;2023-11-19T15:53:25;19.50;82.60
29775;DHT22;16676;51.202;6.774;2023-11-19T15:57:28;19.70;82.90
29775;DHT22;16676;51.202;6.774;2023-11-19T16:01:31;19.90;84.10
29775;DHT22;16676;51.202;6.774;2023-11-19T16:05:33;20.00;88.20
29775;DHT22;16676;51.202;6.774;2023-11-19T16:09:35;20.10;90.70
29775;DHT22;16676;51.202;6.774;2023-11-19T16:13:38;20.20;91.20
29775;DHT22;16676;51.202;6.774;2023-11-19T16:17:41;20.30;92.70
29775;DHT22;16676;51.202;6.774;2023-11-19T16:21:44;20.30;94.20
29775;DHT22;16676;51.202;6.774;2023-11-19T16:25:46;20.30;95.70
29775;DHT22;16676;51.202;6.774;2023-11-19T16:29:48;20.40;96.40
29775;DHT22;16676;51.202;6.774;2023-11-19T16:33:52;20.40;90.10
29775;DHT22;16676;51.202;6.774;2023-11-19T16:37:54;20.30;86.70
29775;DHT22;16676;51.202;6.774;2023-11-19T16:41:56;20.20;85.30
29775;DHT22;16676;51.202;6.774;2023-11-19T16:45:59;20.10;86.30
29775;DHT22;16676;51.202;6.774;2023-11-19T16:50:02;20.00;85.10
29775;DHT22;16676;51.202;6.774;2023-11-19T16:54:05;19.90;85.00
29775;DHT22;16676;51.202;6.774;2023-11-19T16:58:07;19.90;85.00
29775;DHT22;16676;51.202;6.774;2023-11-19T17:02:10;19.80;85.30
29775;DHT22;16676;51.202;6.774;2023-11-19T17:06:14;19.80;85.10
29775;DHT22;16676;51.202;6.774;2023-11-19T17:10:16;19.80;84.90
29775;DHT22;16676;51.202;6.774;2023-11-19T17:14:19;19.70;84.60
29775;DHT22;16676;51.202;6.774;2023-11-19T17:18:21;19.70;84.90
29775;DHT22;16676;51.202;6.774;2023-11-19T17:22:25;19.70;84.70
29775;DHT22;16676;51.202;6.774;2023-11-19T17:26:26;19.70;85.20
29775;DHT22;16676;51.202;6.774;2023-11-19T17:30:28;19.60;85.30
29775;DHT22;16676;51.202;6.774;2023-11-19T17:34:30;19.60;85.30
29775;DHT22;16676;51.202;6.774;2023-11-19T17:38:33;19.60;85.50
29775;DHT22;16676;51.202;6.774;2023-11-19T17:42:35;19.60;84.50
29775;DHT22;16676;51.202;6.774;2023-11-19T17:46:37;19.60;84.50
29775;DHT22;16676;51.202;6.774;2023-11-19T17:50:39;19.60;85.60
29775;DHT22;16676;51.202;6.774;2023-11-19T17:54:43;19.60;86.20
29775;DHT22;16676;51.202;6.774;2023-11-19T17:58:45;19.60;84.80
29775;DHT22;16676;51.202;6.774;2023-11-19T18:02:47;19.50;85.80
29775;DHT22;16676;51.202;6.774;2023-11-19T18:06:52;19.50;86.70
29775;DHT22;16676;51.202;6.774;2023-11-19T18:10:55;19.50;85.20
29775;DHT22;16676;51.202;6.774;2023-11-19T18:14:57;19.50;85.30
29775;DHT22;16676;51.202;6.774;2023-11-19T18:18:59;19.50;84.90
29775;DHT22;16676;51.202;6.774;2023-11-19T18:23:01;19.50;84.80
29775;DHT22;16676;51.202;6.774;2023-11-19T18:27:05;19.50;85.50
29775;DHT22;16676;51.202;6.774;2023-11-19T18:31:07;19.50;84.70
29775;DHT22;16676;51.202;6.774;2023-11-19T18:35:10;19.50;84.90
29775;DHT22;16676;51.202;6.774;2023-11-19T18:39:12;19.50;85.20
29775;DHT22;16676;51.202;6.774;2023-11-19T18:43:15;19.40;85.20
29775;DHT22;16676;51.202;6.774;2023-11-19T18:47:20;19.40;86.10
29775;DHT22;16676;51.202;6.774;2023-11-19T18:51:22;19.40;85.60
29775;DHT22;16676;51.202;6.774;2023-11-19T18:55:24;19.50;85.70
29775;DHT22;16676;51.202;6.774;2023-11-19T18:59:27;19.40;86.20
29775;DHT22;16676;51.202;6.774;2023-11-19T19:03:29;19.40;86.20
29775;DHT22;16676;51.202;6.774;2023-11-19T19:07:32;19.40;85.50
29775;DHT22;16676;51.202;6.774;2023-11-19T19:11:34;19.50;85.30
29775;DHT22;16676;51.202;6.774;2023-11-19T19:15:37;19.40;85.00
29775;DHT22;16676;51.202;6.774;2023-11-19T19:19:39;19.20;87.80
29775;DHT22;16676;51.202;6.774;2023-11-19T19:23:41;19.10;89.20
29775;DHT22;16676;51.202;6.774;2023-11-19T19:27:44;19.10;89.80
29775;DHT22;16676;51.202;6.774;2023-11-19T19:31:47;19.10;88.40
29775;DHT22;16676;51.202;6.774;2023-11-19T19:35:49;19.20;87.30
29775;DHT22;16676;51.202;6.774;2023-11-19T19:39:51;19.20;86.40
29775;DHT22;16676;51.202;6.774;2023-11-19T19:43:54;19.30;86.50
29775;DHT22;16676;51.202;6.774;2023-11-19T19:47:57;19.30;85.90
29775;DHT22;16676;51.202;6.774;2023-11-19T19:51:59;19.30;85.50
29775;DHT22;16676;51.202;6.774;2023-11-19T19:56:01;19.30;85.30
29775;DHT22;16676;51.202;6.774;2023-11-19T20:00:04;19.30;85.10
29775;DHT22;16676;51.202;6.774;2023-11-19T20:04:11;19.30;85.00
29775;DHT22;16676;51.202;6.774;2023-11-19T20:08:13;19.20;84.70
29775;DHT22;16676;51.202;6.774;2023-11-19T20:12:15;19.20;84.60
29775;DHT22;16676;51.202;6.774;2023-11-19T20:16:17;19.20;84.90
29775;DHT22;16676;51.202;6.774;2023-11-19T20:20:20;19.10;85.10
29775;DHT22;16676;51.202;6.774;2023-11-19T20:24:22;19.10;84.80
29775;DHT22;16676;51.202;6.774;2023-11-19T20:28:24;19.10;84.80
29775;DHT22;16676;51.202;6.774;2023-11-19T20:32:26;19.10;84.70
29775;DHT22;16676;51.202;6.774;2023-11-19T20:36:30;19.10;84.90
29775;DHT22;16676;51.202;6.774;2023-11-19T20:40:31;18.90;88.00
29775;DHT22;16676;51.202;6.774;2023-11-19T20:44:33;18.80;88.60
29775;DHT22;16676;51.202;6.774;2023-11-19T20:48:35;18.90;89.40
29775;DHT22;16676;51.202;6.774;2023-11-19T20:52:39;18.90;89.70
29775;DHT22;16676;51.202;6.774;2023-11-19T20:56:41;18.90;89.60
29775;DHT22;16676;51.202;6.774;2023-11-19T21:00:43;18.90;89.60
29775;DHT22;16676;51.202;6.774;2023-11-19T21:04:47;18.90;89.40
29775;DHT22;16676;51.202;6.774;2023-11-19T21:08:50;18.90;89.40
29775;DHT22;16676;51.202;6.774;2023-11-19T21:12:52;18.90;89.40
29775;DHT22;16676;51.202;6.774;2023-11-19T21:16:54;18.90;89.30
29775;DHT22;16676;51.202;6.774;2023-11-19T21:20:56;18.90;89.40
29775;DHT22;16676;51.202;6.774;2023-11-19T21:25:00;18.90;89.90
29775;DHT22;16676;51.202;6.774;2023-11-19T21:29:01;18.90;89.90
29775;DHT22;16676;51.202;6.774;2023-11-19T21:33:03;18.90;89.70
29775;DHT22;16676;51.202;6.774;2023-11-19T21:37:06;18.90;90.00
29775;DHT22;16676;51.202;6.774;2023-11-19T21:41:12;18.90;90.00
29775;DHT22;16676;51.202;6.774;2023-11-19T21:45:14;18.80;89.90
29775;DHT22;16676;51.202;6.774;2023-11-19T21:49:16;18.80;89.80
29775;DHT22;16676;51.202;6.774;2023-11-19T21:53:18;18.80;89.70
29775;DHT22;16676;51.202;6.774;2023-11-19T21:57:22;18.80;90.30
29775;DHT22;16676;51.202;6.774;2023-11-19T22:01:24;18.80;90.00
29775;DHT22;16676;51.202;6.774;2023-11-19T22:05:25;18.80;90.00
29775;DHT22;16676;51.202;6.774;2023-11-19T22:09:27;18.70;90.10
29775;DHT22;16676;51.202;6.774;2023-11-19T22:13:31;18.70;89.90
29775;DHT22;16676;51.202;6.774;2023-11-19T22:17:35;18.70;90.00
29775;DHT22;16676;51.202;6.774;2023-11-19T22:21:38;18.70;90.10
29775;DHT22;16676;51.202;6.774;2023-11-19T22:25:40;18.70;90.10
29775;DHT22;16676;51.202;6.774;2023-11-19T22:29:45;18.70;90.20
29775;DHT22;16676;51.202;6.774;2023-11-19T22:33:48;18.70;89.50
29775;DHT22;16676;51.202;6.774;2023-11-19T22:37:50;18.70;90.00
29775;DHT22;16676;51.202;6.774;2023-11-19T22:41:52;18.70;90.10
29775;DHT22;16676;51.202;6.774;2023-11-19T22:45:55;18.70;90.00
29775;DHT22;16676;51.202;6.774;2023-11-19T22:49:57;18.70;89.90
29775;DHT22;16676;51.202;6.774;2023-11-19T22:53:59;18.70;89.00
29775;DHT22;16676;51.202;6.774;2023-11-19T22:58:01;18.70;90.00
29775;DHT22;16676;51.202;6.774;2023-11-19T23:02:05;18.70;89.30
29775;DHT22;16676;51.202;6.774;2023-11-19T23:06:07;18.70;89.90
29775;DHT22;16676;51.202;6.774;2023-11-19T23:10:10;18.70;89.80
29775;DHT22;16676;51.202;6.774;2023-11-19T23:14:11;18.70;89.60
29775;DHT22;16676;51.202;6.774;2023-11-19T23:18:16;18.70;90.00
29775;DHT22;16676;51.202;6.774;2023-11-19T23:22:19;18.60;89.90
29775;DHT22;16676;51.202;6.774;2023-11-19T23:26:21;18.60;90.10
29775;DHT22;16676;51.202;6.774;2023-11-19T23:30:22;18.70;89.30
29775;DHT22;16676;51.202;6.774;2023-11-19T23:34:26;18.60;90.00
29775;DHT22;16676;51.202;6.774;2023-11-19T23:38:28;18.60;89.30
29775;DHT22;16676;51.202;6.774;2023-11-19T23:42:30;18.60;88.80
29775;DHT22;16676;51.202;6.774;2023-11-19T23:46:32;18.60;90.00
29775;DHT22;16676;51.202;6.774;2023-11-19T23:50:36;18.60;89.90
29775;DHT22;16676;51.202;6.774;2023-11-19T23:54:39;18.60;89.40
29775;DHT22;16676;51.202;6.774;2023-11-19T23:58:41;18.60;89.60
